sensor_id;sensor_type;location;lat;lon;timestamp;pressure;altitude;pressure_sealevel;temperature;humidity
56825;BME280;42705;50.326;18.772;2023-11-19T00:00:36;98993.65;;;0.95;69.48
56825;BME280;42705;50.326;18.772;2023-11-19T00:06:17;98987.55;;;0.92;69.44
56825;BME280;42705;50.326;18.772;2023-11-19T00:11:39;98990.11;;;0.97;69.19
56825;BME280;42705;50.326;18.772;2023-11-19T00:17:02;98977.13;;;1.03;69.57
56825;BME280;42705;50.326;18.772;2023-11-19T00:22:25;98972.92;;;1.05;69.28
56825;BME280;42705;50.326;18.772;2023-11-19T00:27:47;98970.38;;;1.00;69.31
56825;BME280;42705;50.326;18.772;2023-11-19T00:33:09;98984.05;;;0.94;69.41
56825;BME280;42705;50.326;18.772;2023-11-19T00:38:31;98977.87;;;0.98;69.50
56825;BME280;42705;50.326;18.772;2023-11-19T00:43:53;98980.20;;;1.04;69.74
56825;BME280;42705;50.326;18.772;2023-11-19T00:49:15;98983.73;;;1.06;69.60
56825;BME280;42705;50.326;18.772;2023-11-19T00:54:37;98972.59;;;1.01;69.68
56825;BME280;42705;50.326;18.772;2023-11-19T00:59:59;98962.92;;;0.93;69.59
56825;BME280;42705;50.326;18.772;2023-11-19T01:05:21;98972.87;;;0.86;69.67
56825;BME280;42705;50.326;18.772;2023-11-19T01:10:43;98961.97;;;0.80;69.97
56825;BME280;42705;50.326;18.772;2023-11-19T01:16:06;98950.33;;;0.74;69.83
56825;BME280;42705;50.326;18.772;2023-11-19T01:21:28;98943.77;;;0.70;70.22
56825;BME280;42705;50.326;18.772;2023-11-19T01:26:50;98930.69;;;0.71;70.17
56825;BME280;42705;50.326;18.772;2023-11-19T01:32:11;98909.20;;;0.79;70.39
56825;BME280;42705;50.326;18.772;2023-11-19T01:37:34;98898.30;;;0.88;70.54
56825;BME280;42705;50.326;18.772;2023-11-19T01:42:58;98908.73;;;0.93;70.31
56825;BME280;42705;50.326;18.772;2023-11-19T01:48:20;98897.05;;;0.93;70.41
56825;BME280;42705;50.326;18.772;2023-11-19T01:53:43;98891.91;;;0.93;70.51
56825;BME280;42705;50.326;18.772;2023-11-19T01:59:05;98874.95;;;0.98;70.52
56825;BME280;42705;50.326;18.772;2023-11-19T02:04:27;98857.57;;;1.03;70.44
56825;BME280;42705;50.326;18.772;2023-11-19T02:09:49;98820.11;;;1.02;70.32
56825;BME280;42705;50.326;18.772;2023-11-19T02:15:11;98806.91;;;0.98;70.36
56825;BME280;42705;50.326;18.772;2023-11-19T02:20:33;98784.36;;;0.90;70.02
56825;BME280;42705;50.326;18.772;2023-11-19T02:26:23;98784.48;;;0.83;70.21
56825;BME280;42705;50.326;18.772;2023-11-19T02:31:46;98774.47;;;0.84;70.17
56825;BME280;42705;50.326;18.772;2023-11-19T02:37:08;98762.39;;;0.85;70.20
56825;BME280;42705;50.326;18.772;2023-11-19T02:48:04;98732.34;;;0.81;70.48
56825;BME280;42705;50.326;18.772;2023-11-19T02:53:27;98730.48;;;0.72;70.30
56825;BME280;42705;50.326;18.772;2023-11-19T02:58:51;98728.63;;;0.67;70.29
56825;BME280;42705;50.326;18.772;2023-11-19T03:04:13;98716.58;;;0.61;70.53
56825;BME280;42705;50.326;18.772;2023-11-19T03:09:39;98738.65;;;0.51;70.62
56825;BME280;42705;50.326;18.772;2023-11-19T03:15:02;98730.58;;;0.44;70.54
56825;BME280;42705;50.326;18.772;2023-11-19T03:20:24;98716.60;;;0.37;70.64
56825;BME280;42705;50.326;18.772;2023-11-19T03:25:49;98693.27;;;0.36;70.80
56825;BME280;42705;50.326;18.772;2023-11-19T03:31:11;98688.68;;;0.35;70.87
56825;BME280;42705;50.326;18.772;2023-11-19T03:36:33;98688.12;;;0.32;71.16
56825;BME280;42705;50.326;18.772;2023-11-19T03:41:55;98680.96;;;0.31;70.91
56825;BME280;42705;50.326;18.772;2023-11-19T03:47:17;98653.73;;;0.29;70.72
56825;BME280;42705;50.326;18.772;2023-11-19T03:52:39;98652.36;;;0.33;70.78
56825;BME280;42705;50.326;18.772;2023-11-19T03:58:01;98643.64;;;0.35;71.10
56825;BME280;42705;50.326;18.772;2023-11-19T04:03:23;98630.83;;;0.34;71.22
56825;BME280;42705;50.326;18.772;2023-11-19T04:08:45;98625.11;;;0.31;71.24
56825;BME280;42705;50.326;18.772;2023-11-19T04:14:07;98622.23;;;0.31;71.17
56825;BME280;42705;50.326;18.772;2023-11-19T04:19:28;98630.60;;;0.35;71.26
56825;BME280;42705;50.326;18.772;2023-11-19T04:24:51;98616.09;;;0.37;71.21
56825;BME280;42705;50.326;18.772;2023-11-19T04:30:13;98606.36;;;0.35;71.29
56825;BME280;42705;50.326;18.772;2023-11-19T04:35:36;98588.83;;;0.32;71.15
56825;BME280;42705;50.326;18.772;2023-11-19T04:40:58;98589.42;;;0.30;71.14
56825;BME280;42705;50.326;18.772;2023-11-19T04:46:20;98587.27;;;0.35;71.33
56825;BME280;42705;50.326;18.772;2023-11-19T04:51:44;98597.36;;;0.40;71.31
56825;BME280;42705;50.326;18.772;2023-11-19T04:57:09;98588.84;;;0.42;71.09
56825;BME280;42705;50.326;18.772;2023-11-19T05:02:34;98559.67;;;0.41;71.45
56825;BME280;42705;50.326;18.772;2023-11-19T05:07:56;98545.62;;;0.37;71.19
56825;BME280;42705;50.326;18.772;2023-11-19T05:13:20;98544.23;;;0.37;71.06
56825;BME280;42705;50.326;18.772;2023-11-19T05:18:42;98533.42;;;0.37;71.36
56825;BME280;42705;50.326;18.772;2023-11-19T05:24:04;98518.62;;;0.34;71.33
56825;BME280;42705;50.326;18.772;2023-11-19T05:29:26;98509.15;;;0.30;71.29
56825;BME280;42705;50.326;18.772;2023-11-19T05:34:48;98490.67;;;0.29;71.57
56825;BME280;42705;50.326;18.772;2023-11-19T05:40:10;98477.98;;;0.33;71.48
56825;BME280;42705;50.326;18.772;2023-11-19T05:45:39;98482.65;;;0.35;71.69
56825;BME280;42705;50.326;18.772;2023-11-19T05:51:01;98501.61;;;0.37;71.79
56825;BME280;42705;50.326;18.772;2023-11-19T05:56:23;98512.27;;;0.41;71.74
56825;BME280;42705;50.326;18.772;2023-11-19T06:01:45;98515.67;;;0.45;71.80
56825;BME280;42705;50.326;18.772;2023-11-19T06:07:08;98514.40;;;0.53;71.69
56825;BME280;42705;50.326;18.772;2023-11-19T06:12:30;98510.56;;;0.59;71.98
56825;BME280;42705;50.326;18.772;2023-11-19T06:17:53;98493.77;;;0.61;71.82
56825;BME280;42705;50.326;18.772;2023-11-19T06:23:16;98492.07;;;0.61;72.02
56825;BME280;42705;50.326;18.772;2023-11-19T06:28:38;98479.33;;;0.68;71.97
56825;BME280;42705;50.326;18.772;2023-11-19T06:34:00;98459.59;;;0.74;72.03
56825;BME280;42705;50.326;18.772;2023-11-19T06:39:22;98453.17;;;0.75;71.99
56825;BME280;42705;50.326;18.772;2023-11-19T06:44:44;98445.73;;;0.77;71.93
56825;BME280;42705;50.326;18.772;2023-11-19T06:50:07;98426.70;;;0.79;72.10
56825;BME280;42705;50.326;18.772;2023-11-19T06:55:29;98425.83;;;0.85;72.02
56825;BME280;42705;50.326;18.772;2023-11-19T07:00:52;98434.55;;;0.94;72.00
56825;BME280;42705;50.326;18.772;2023-11-19T07:06:14;98420.56;;;0.98;72.04
56825;BME280;42705;50.326;18.772;2023-11-19T07:11:38;98424.37;;;1.00;72.09
56825;BME280;42705;50.326;18.772;2023-11-19T07:17:00;98411.54;;;1.03;71.81
56825;BME280;42705;50.326;18.772;2023-11-19T07:22:23;98404.36;;;1.11;71.75
56825;BME280;42705;50.326;18.772;2023-11-19T07:27:45;98414.88;;;1.18;71.78
56825;BME280;42705;50.326;18.772;2023-11-19T07:33:09;98420.08;;;1.20;71.67
56825;BME280;42705;50.326;18.772;2023-11-19T07:38:31;98398.48;;;1.22;71.92
56825;BME280;42705;50.326;18.772;2023-11-19T07:43:54;98395.58;;;1.28;71.78
56825;BME280;42705;50.326;18.772;2023-11-19T07:49:16;98372.52;;;1.44;71.85
56825;BME280;42705;50.326;18.772;2023-11-19T07:54:40;98349.64;;;1.53;71.68
56825;BME280;42705;50.326;18.772;2023-11-19T08:00:02;98340.38;;;1.59;71.42
56825;BME280;42705;50.326;18.772;2023-11-19T08:05:34;98333.00;;;1.58;71.31
56825;BME280;42705;50.326;18.772;2023-11-19T08:10:56;98330.88;;;1.56;71.22
56825;BME280;42705;50.326;18.772;2023-11-19T08:16:18;98331.06;;;1.56;71.21
56825;BME280;42705;50.326;18.772;2023-11-19T08:21:40;98330.81;;;1.54;71.16
56825;BME280;42705;50.326;18.772;2023-11-19T08:27:02;98313.90;;;1.49;71.02
56825;BME280;42705;50.326;18.772;2023-11-19T08:32:25;98312.59;;;1.41;71.11
56825;BME280;42705;50.326;18.772;2023-11-19T08:37:48;98309.36;;;1.41;71.19
56825;BME280;42705;50.326;18.772;2023-11-19T08:43:10;98308.70;;;1.50;71.39
56825;BME280;42705;50.326;18.772;2023-11-19T08:48:32;98302.31;;;1.56;71.27
56825;BME280;42705;50.326;18.772;2023-11-19T08:53:54;98301.35;;;1.61;71.17
56825;BME280;42705;50.326;18.772;2023-11-19T08:59:17;98274.21;;;1.66;71.06
56825;BME280;42705;50.326;18.772;2023-11-19T09:04:40;98269.36;;;1.69;71.15
56825;BME280;42705;50.326;18.772;2023-11-19T09:10:05;98264.67;;;1.79;71.13
56825;BME280;42705;50.326;18.772;2023-11-19T09:15:27;98272.22;;;1.89;70.91
56825;BME280;42705;50.326;18.772;2023-11-19T09:20:49;98268.56;;;1.93;70.90
56825;BME280;42705;50.326;18.772;2023-11-19T09:26:11;98245.97;;;1.93;70.59
56825;BME280;42705;50.326;18.772;2023-11-19T09:31:33;98230.80;;;1.96;70.51
56825;BME280;42705;50.326;18.772;2023-11-19T09:36:55;98216.70;;;2.04;70.32
56825;BME280;42705;50.326;18.772;2023-11-19T09:42:17;98199.77;;;2.05;70.03
56825;BME280;42705;50.326;18.772;2023-11-19T09:47:44;98189.27;;;2.08;70.19
56825;BME280;42705;50.326;18.772;2023-11-19T09:53:07;98173.55;;;2.12;70.41
56825;BME280;42705;50.326;18.772;2023-11-19T09:58:30;98175.15;;;2.16;70.15
56825;BME280;42705;50.326;18.772;2023-11-19T10:03:55;98159.08;;;2.23;70.04
56825;BME280;42705;50.326;18.772;2023-11-19T10:09:17;98145.31;;;2.36;69.99
56825;BME280;42705;50.326;18.772;2023-11-19T10:14:40;98146.77;;;2.58;69.92
56825;BME280;42705;50.326;18.772;2023-11-19T10:20:04;98137.16;;;2.57;69.52
56825;BME280;42705;50.326;18.772;2023-11-19T10:25:27;98122.67;;;2.46;69.80
56825;BME280;42705;50.326;18.772;2023-11-19T10:30:50;98124.44;;;2.40;69.69
56825;BME280;42705;50.326;18.772;2023-11-19T10:36:18;98107.70;;;2.37;70.04
56825;BME280;42705;50.326;18.772;2023-11-19T10:41:41;98081.23;;;2.28;70.02
56825;BME280;42705;50.326;18.772;2023-11-19T10:47:05;98068.77;;;2.20;70.31
56825;BME280;42705;50.326;18.772;2023-11-19T10:52:30;98068.50;;;2.10;70.13
56825;BME280;42705;50.326;18.772;2023-11-19T10:57:52;98057.94;;;1.98;70.76
56825;BME280;42705;50.326;18.772;2023-11-19T11:03:20;98064.55;;;1.94;71.25
56825;BME280;42705;50.326;18.772;2023-11-19T11:08:42;98059.67;;;1.84;71.43
56825;BME280;42705;50.326;18.772;2023-11-19T11:14:05;98041.58;;;1.66;71.83
56825;BME280;42705;50.326;18.772;2023-11-19T11:19:28;98027.02;;;1.60;72.24
56825;BME280;42705;50.326;18.772;2023-11-19T11:26:02;98009.64;;;1.62;72.68
56825;BME280;42705;50.326;18.772;2023-11-19T11:53:17;97983.50;;;1.76;73.54
56825;BME280;42705;50.326;18.772;2023-11-19T11:58:40;97970.73;;;1.77;73.74
56825;BME280;42705;50.326;18.772;2023-11-19T12:04:04;97962.29;;;1.77;73.87
56825;BME280;42705;50.326;18.772;2023-11-19T12:09:27;97958.25;;;1.78;73.77
56825;BME280;42705;50.326;18.772;2023-11-19T12:20:22;97948.91;;;1.86;73.97
56825;BME280;42705;50.326;18.772;2023-11-19T12:25:44;97941.19;;;1.86;74.21
56825;BME280;42705;50.326;18.772;2023-11-19T12:31:09;97929.17;;;1.86;74.10
56825;BME280;42705;50.326;18.772;2023-11-19T12:36:31;97913.97;;;1.91;74.20
56825;BME280;42705;50.326;18.772;2023-11-19T12:41:53;97900.25;;;1.96;74.46
56825;BME280;42705;50.326;18.772;2023-11-19T12:47:17;97885.68;;;1.90;74.52
56825;BME280;42705;50.326;18.772;2023-11-19T12:52:40;97897.50;;;1.88;74.39
56825;BME280;42705;50.326;18.772;2023-11-19T12:58:02;97894.88;;;1.89;74.59
56825;BME280;42705;50.326;18.772;2023-11-19T13:03:34;97884.69;;;1.83;74.59
56825;BME280;42705;50.326;18.772;2023-11-19T13:08:57;97881.79;;;1.75;74.96
56825;BME280;42705;50.326;18.772;2023-11-19T13:14:20;97871.05;;;1.84;75.14
56825;BME280;42705;50.326;18.772;2023-11-19T13:19:42;97861.12;;;1.97;75.26
56825;BME280;42705;50.326;18.772;2023-11-19T13:25:06;97855.02;;;1.98;75.35
56825;BME280;42705;50.326;18.772;2023-11-19T13:30:28;97844.86;;;1.95;75.38
56825;BME280;42705;50.326;18.772;2023-11-19T13:35:51;97841.59;;;2.00;75.54
56825;BME280;42705;50.326;18.772;2023-11-19T13:41:13;97826.92;;;2.09;76.08
56825;BME280;42705;50.326;18.772;2023-11-19T13:46:36;97827.00;;;2.10;76.03
56825;BME280;42705;50.326;18.772;2023-11-19T13:51:58;97827.98;;;2.19;76.21
56825;BME280;42705;50.326;18.772;2023-11-19T13:57:19;97824.67;;;2.30;76.37
56825;BME280;42705;50.326;18.772;2023-11-19T14:02:42;97824.57;;;2.36;76.60
56825;BME280;42705;50.326;18.772;2023-11-19T14:08:05;97819.86;;;2.40;76.70
56825;BME280;42705;50.326;18.772;2023-11-19T14:13:35;97811.29;;;2.47;76.74
56825;BME280;42705;50.326;18.772;2023-11-19T14:18:57;97799.48;;;2.61;77.02
56825;BME280;42705;50.326;18.772;2023-11-19T14:24:19;97789.30;;;2.66;77.33
56825;BME280;42705;50.326;18.772;2023-11-19T14:29:41;97792.45;;;2.75;77.49
56825;BME280;42705;50.326;18.772;2023-11-19T14:35:04;97796.38;;;2.86;77.76
56825;BME280;42705;50.326;18.772;2023-11-19T14:40:26;97799.48;;;2.94;77.71
56825;BME280;42705;50.326;18.772;2023-11-19T14:45:48;97798.05;;;3.04;77.82
56825;BME280;42705;50.326;18.772;2023-11-19T14:51:10;97790.45;;;3.11;78.02
56825;BME280;42705;50.326;18.772;2023-11-19T14:56:32;97795.95;;;3.14;77.80
56825;BME280;42705;50.326;18.772;2023-11-19T15:01:55;97794.02;;;3.22;77.93
56825;BME280;42705;50.326;18.772;2023-11-19T15:07:17;97799.25;;;3.24;77.93
56825;BME280;42705;50.326;18.772;2023-11-19T15:12:39;97801.17;;;3.24;78.11
56825;BME280;42705;50.326;18.772;2023-11-19T15:18:03;97807.71;;;3.26;78.20
56825;BME280;42705;50.326;18.772;2023-11-19T15:23:25;97800.59;;;3.29;78.13
56825;BME280;42705;50.326;18.772;2023-11-19T15:28:46;97794.09;;;3.33;78.27
56825;BME280;42705;50.326;18.772;2023-11-19T15:34:08;97809.98;;;3.36;78.23
56825;BME280;42705;50.326;18.772;2023-11-19T15:39:31;97816.09;;;3.40;78.33
56825;BME280;42705;50.326;18.772;2023-11-19T15:44:54;97811.73;;;3.43;78.29
56825;BME280;42705;50.326;18.772;2023-11-19T15:50:16;97816.93;;;3.43;78.41
56825;BME280;42705;50.326;18.772;2023-11-19T15:55:38;97808.48;;;3.47;78.48
56825;BME280;42705;50.326;18.772;2023-11-19T16:01:00;97799.86;;;3.49;78.51
56825;BME280;42705;50.326;18.772;2023-11-19T16:06:22;97789.27;;;3.55;78.57
56825;BME280;42705;50.326;18.772;2023-11-19T16:11:45;97791.66;;;3.58;78.51
56825;BME280;42705;50.326;18.772;2023-11-19T16:17:09;97791.38;;;3.57;78.46
56825;BME280;42705;50.326;18.772;2023-11-19T16:22:32;97796.50;;;3.60;78.43
56825;BME280;42705;50.326;18.772;2023-11-19T16:27:55;97809.55;;;3.58;78.54
56825;BME280;42705;50.326;18.772;2023-11-19T16:33:18;97800.13;;;3.60;78.58
56825;BME280;42705;50.326;18.772;2023-11-19T16:38:39;97804.20;;;3.61;78.77
56825;BME280;42705;50.326;18.772;2023-11-19T16:44:01;97797.85;;;3.63;78.87
56825;BME280;42705;50.326;18.772;2023-11-19T16:49:24;97795.48;;;3.67;79.03
56825;BME280;42705;50.326;18.772;2023-11-19T16:54:46;97804.42;;;3.70;79.08
56825;BME280;42705;50.326;18.772;2023-11-19T17:00:09;97813.44;;;3.72;79.21
56825;BME280;42705;50.326;18.772;2023-11-19T17:05:33;97819.40;;;3.73;79.27
56825;BME280;42705;50.326;18.772;2023-11-19T17:10:55;97809.38;;;3.73;79.24
56825;BME280;42705;50.326;18.772;2023-11-19T17:16:17;97801.80;;;3.75;79.22
56825;BME280;42705;50.326;18.772;2023-11-19T17:21:39;97806.30;;;3.77;79.38
56825;BME280;42705;50.326;18.772;2023-11-19T17:27:01;97810.07;;;3.83;79.28
56825;BME280;42705;50.326;18.772;2023-11-19T17:32:23;97815.91;;;3.83;79.43
56825;BME280;42705;50.326;18.772;2023-11-19T17:37:45;97813.73;;;3.87;79.51
56825;BME280;42705;50.326;18.772;2023-11-19T17:43:08;97803.62;;;3.88;79.43
56825;BME280;42705;50.326;18.772;2023-11-19T17:48:31;97809.73;;;3.87;79.59
56825;BME280;42705;50.326;18.772;2023-11-19T17:53:56;97812.61;;;3.86;79.66
56825;BME280;42705;50.326;18.772;2023-11-19T17:59:18;97813.06;;;3.84;79.84
56825;BME280;42705;50.326;18.772;2023-11-19T18:04:46;97816.66;;;3.87;79.85
56825;BME280;42705;50.326;18.772;2023-11-19T18:10:10;97798.65;;;3.87;80.01
56825;BME280;42705;50.326;18.772;2023-11-19T18:15:33;97792.80;;;3.89;79.98
56825;BME280;42705;50.326;18.772;2023-11-19T18:20:57;97792.00;;;3.89;80.10
56825;BME280;42705;50.326;18.772;2023-11-19T18:26:20;97787.77;;;3.88;80.11
56825;BME280;42705;50.326;18.772;2023-11-19T18:31:41;97783.34;;;3.89;80.25
56825;BME280;42705;50.326;18.772;2023-11-19T18:37:05;97787.88;;;3.91;80.34
56825;BME280;42705;50.326;18.772;2023-11-19T18:42:27;97790.67;;;3.95;80.50
56825;BME280;42705;50.326;18.772;2023-11-19T18:47:49;97792.51;;;3.96;80.50
56825;BME280;42705;50.326;18.772;2023-11-19T18:53:15;97798.13;;;3.97;80.64
56825;BME280;42705;50.326;18.772;2023-11-19T18:58:39;97796.75;;;3.99;80.65
56825;BME280;42705;50.326;18.772;2023-11-19T19:04:05;97788.05;;;4.02;80.62
56825;BME280;42705;50.326;18.772;2023-11-19T19:09:28;97780.16;;;4.04;80.94
56825;BME280;42705;50.326;18.772;2023-11-19T19:14:50;97785.33;;;4.06;80.96
56825;BME280;42705;50.326;18.772;2023-11-19T19:20:17;97786.75;;;4.11;80.96
56825;BME280;42705;50.326;18.772;2023-11-19T19:25:41;97781.61;;;4.15;81.02
56825;BME280;42705;50.326;18.772;2023-11-19T19:31:04;97796.83;;;4.19;80.85
56825;BME280;42705;50.326;18.772;2023-11-19T19:36:28;97812.85;;;4.18;80.96
56825;BME280;42705;50.326;18.772;2023-11-19T19:41:50;97815.73;;;4.21;81.04
56825;BME280;42705;50.326;18.772;2023-11-19T19:47:13;97797.26;;;4.20;81.12
56825;BME280;42705;50.326;18.772;2023-11-19T19:52:34;97802.70;;;4.17;81.24
56825;BME280;42705;50.326;18.772;2023-11-19T19:57:56;97817.13;;;4.18;81.32
56825;BME280;42705;50.326;18.772;2023-11-19T20:03:18;97793.46;;;4.18;81.51
56825;BME280;42705;50.326;18.772;2023-11-19T20:08:41;97796.73;;;4.18;81.68
56825;BME280;42705;50.326;18.772;2023-11-19T20:14:03;97798.91;;;4.19;81.81
56825;BME280;42705;50.326;18.772;2023-11-19T20:19:29;97794.64;;;4.18;82.03
56825;BME280;42705;50.326;18.772;2023-11-19T20:24:52;97796.48;;;4.21;82.10
56825;BME280;42705;50.326;18.772;2023-11-19T20:30:14;97797.42;;;4.25;82.31
56825;BME280;42705;50.326;18.772;2023-11-19T20:35:36;97800.16;;;4.30;82.18
56825;BME280;42705;50.326;18.772;2023-11-19T20:41:02;97802.45;;;4.34;82.37
56825;BME280;42705;50.326;18.772;2023-11-19T20:46:24;97802.84;;;4.38;82.28
56825;BME280;42705;50.326;18.772;2023-11-19T20:51:48;97801.28;;;4.45;82.32
56825;BME280;42705;50.326;18.772;2023-11-19T20:57:10;97795.93;;;4.47;82.27
56825;BME280;42705;50.326;18.772;2023-11-19T21:02:33;97789.14;;;4.50;82.22
56825;BME280;42705;50.326;18.772;2023-11-19T21:07:57;97787.59;;;4.55;82.10
56825;BME280;42705;50.326;18.772;2023-11-19T21:13:21;97789.14;;;4.59;82.28
56825;BME280;42705;50.326;18.772;2023-11-19T21:18:43;97794.52;;;4.66;82.18
56825;BME280;42705;50.326;18.772;2023-11-19T21:24:05;97782.11;;;4.72;82.21
56825;BME280;42705;50.326;18.772;2023-11-19T21:29:27;97782.77;;;4.77;82.28
56825;BME280;42705;50.326;18.772;2023-11-19T21:34:49;97785.06;;;4.83;82.12
56825;BME280;42705;50.326;18.772;2023-11-19T21:40:12;97789.77;;;4.85;81.91
56825;BME280;42705;50.326;18.772;2023-11-19T21:45:34;97791.60;;;4.90;81.86
56825;BME280;42705;50.326;18.772;2023-11-19T21:51:04;97791.06;;;4.98;81.90
56825;BME280;42705;50.326;18.772;2023-11-19T21:56:26;97792.58;;;5.00;81.77
56825;BME280;42705;50.326;18.772;2023-11-19T22:01:48;97784.59;;;5.03;81.73
56825;BME280;42705;50.326;18.772;2023-11-19T22:07:09;97785.20;;;5.06;81.62
56825;BME280;42705;50.326;18.772;2023-11-19T22:12:31;97781.20;;;5.08;81.70
56825;BME280;42705;50.326;18.772;2023-11-19T22:17:54;97777.15;;;5.14;81.66
56825;BME280;42705;50.326;18.772;2023-11-19T22:23:15;97770.91;;;5.16;81.49
56825;BME280;42705;50.326;18.772;2023-11-19T22:28:37;97769.66;;;5.21;81.50
56825;BME280;42705;50.326;18.772;2023-11-19T22:34:02;97771.44;;;5.27;81.59
56825;BME280;42705;50.326;18.772;2023-11-19T22:39:26;97771.31;;;5.28;81.59
56825;BME280;42705;50.326;18.772;2023-11-19T22:44:48;97771.79;;;5.31;81.41
56825;BME280;42705;50.326;18.772;2023-11-19T22:50:10;97768.79;;;5.34;81.44
56825;BME280;42705;50.326;18.772;2023-11-19T22:55:33;97771.77;;;5.34;81.56
56825;BME280;42705;50.326;18.772;2023-11-19T23:00:55;97772.27;;;5.38;81.34
56825;BME280;42705;50.326;18.772;2023-11-19T23:06:18;97781.14;;;5.42;81.46
56825;BME280;42705;50.326;18.772;2023-11-19T23:11:41;97789.23;;;5.43;81.48
56825;BME280;42705;50.326;18.772;2023-11-19T23:17:03;97789.77;;;5.44;81.53
56825;BME280;42705;50.326;18.772;2023-11-19T23:22:25;97787.36;;;5.44;81.34
56825;BME280;42705;50.326;18.772;2023-11-19T23:27:48;97787.43;;;5.45;81.46
56825;BME280;42705;50.326;18.772;2023-11-19T23:33:10;97790.57;;;5.45;81.49
56825;BME280;42705;50.326;18.772;2023-11-19T23:38:32;97788.84;;;5.43;81.57
56825;BME280;42705;50.326;18.772;2023-11-19T23:43:54;97788.36;;;5.45;81.42
56825;BME280;42705;50.326;18.772;2023-11-19T23:49:15;97784.55;;;5.45;81.51
56825;BME280;42705;50.326;18.772;2023-11-19T23:54:37;97782.13;;;5.47;81.45
56825;BME280;42705;50.326;18.772;2023-11-19T23:59:59;97776.42;;;5.49;81.65
